Terminal Aerodrome Forecast
Issued by NWS Charleston, WV

Current Version | Previous Version | Graphics & Text | Print | Product List | Glossary On
Versions: 1 2 3 4 5 6 7 8 9 10 11 12 13 14 15 16 17 18 19 20 21 22 23 24 25
000
FTUS41 KRLX 250800 AAA
TAFPKB
TAF AMD
KPKB 250816Z 2508/2606 11002KT P6SM SCT045
     FM251000 00000KT 5SM BR SCT001
     FM251300 10004KT P6SM SKC
     FM251700 12005KT P6SM FEW040
     FM252300 00000KT P6SM SKC=

USA.gov is the U.S. government's official web portal to all federal, state and local government web resources and services.